Main page
METAR-TAF:

METAR-TAF

Airports :

Kaunas Airport

Kaunas, Lithuania

latitude: 54-54N, longitude: 023-55-12E, elevation: 77 m

Current weather observation

The report was made 10 minutes ago, at 23:50 UTC
Wind 1 kt from variable directions
Temperature 14°C
Humidity 82%
Pressure 1008 hPa
Visibility 10 km or more

METAR: EYKA 222350Z AUTO VRB01KT 9999 NCD 14/11 Q1008

Time: 03:00 (00:00 UTC)

Forecast

The report was made 53 minutes ago, at 23:07 UTC
Forecast valid from 23 at 00 UTC to 23 at 24 UTC
Wind 5 kt from variable directions
Visibility: 9000 m
Becoming
from 23 at 08 UTC to 23 at 09 UTC
Scattered clouds at a height of 4500 ft, Cumulonimbus.
Temporary
from 23 at 11 UTC to 23 at 18 UTC
Wind 25 kt from variable directions
thunderstorm, rain
Becoming
from 23 at 18 UTC to 23 at 19 UTC

TAF: EYKA 222307Z 2300/2324 VRB05KT 9000 NSC BECMG 2308/2309 SCT045CB TEMPO 2311/2318 VRB25KT TSRA BECMG 2318/2319 NSC

Weather observations and forecasts of more than 4000 airports (METAR and TAF reports).

The available stations are represented by yellow and red dots on the map.

Hover mouse over dot to see the name of the station.

Then click to see weather observations and forecasts.

To change the map : click on the green buttons with a black cross to zoom in, on the green button with a dash to zoom out, or on the green arrows for adjacent maps.


METAR-TAF: